sensor_id;sensor_type;location;lat;lon;timestamp;P1;durP1;ratioP1;P2;durP2;ratioP2
65737;SDS011;52478;51.844;6.582;2023-04-08T00:01:41;8.68;;;3.05;;
65737;SDS011;52478;51.844;6.582;2023-04-08T00:04:07;6.38;;;3.30;;
65737;SDS011;52478;51.844;6.582;2023-04-08T00:06:35;6.38;;;2.90;;
65737;SDS011;52478;51.844;6.582;2023-04-08T00:09:03;5.60;;;2.80;;
65737;SDS011;52478;51.844;6.582;2023-04-08T00:11:29;5.60;;;2.45;;
65737;SDS011;52478;51.844;6.582;2023-04-08T00:13:56;7.00;;;2.90;;
65737;SDS011;52478;51.844;6.582;2023-04-08T00:16:22;6.10;;;3.08;;
65737;SDS011;52478;51.844;6.582;2023-04-08T00:18:49;5.70;;;2.58;;
65737;SDS011;52478;51.844;6.582;2023-04-08T00:21:16;5.65;;;2.75;;
65737;SDS011;52478;51.844;6.582;2023-04-08T00:23:46;8.73;;;2.97;;
65737;SDS011;52478;51.844;6.582;2023-04-08T00:26:12;6.07;;;2.65;;
65737;SDS011;52478;51.844;6.582;2023-04-08T00:28:39;6.50;;;2.40;;
65737;SDS011;52478;51.844;6.582;2023-04-08T00:31:06;6.00;;;2.42;;
65737;SDS011;52478;51.844;6.582;2023-04-08T00:33:33;5.93;;;2.80;;
65737;SDS011;52478;51.844;6.582;2023-04-08T00:36:00;6.13;;;2.95;;
65737;SDS011;52478;51.844;6.582;2023-04-08T00:38:27;5.25;;;2.38;;
65737;SDS011;52478;51.844;6.582;2023-04-08T00:40:55;6.40;;;2.28;;
65737;SDS011;52478;51.844;6.582;2023-04-08T00:43:22;5.15;;;2.22;;
65737;SDS011;52478;51.844;6.582;2023-04-08T00:45:48;6.05;;;3.03;;
65737;SDS011;52478;51.844;6.582;2023-04-08T00:48:15;5.40;;;2.55;;
65737;SDS011;52478;51.844;6.582;2023-04-08T00:50:41;6.05;;;2.53;;
65737;SDS011;52478;51.844;6.582;2023-04-08T00:53:10;6.00;;;2.40;;
65737;SDS011;52478;51.844;6.582;2023-04-08T00:55:37;5.78;;;2.53;;
65737;SDS011;52478;51.844;6.582;2023-04-08T00:58:05;6.70;;;2.67;;
65737;SDS011;52478;51.844;6.582;2023-04-08T01:00:32;5.55;;;2.42;;
65737;SDS011;52478;51.844;6.582;2023-04-08T01:03:02;5.60;;;2.42;;
65737;SDS011;52478;51.844;6.582;2023-04-08T01:05:34;5.43;;;2.30;;
65737;SDS011;52478;51.844;6.582;2023-04-08T01:08:05;6.18;;;2.70;;
65737;SDS011;52478;51.844;6.582;2023-04-08T01:10:34;7.15;;;2.75;;
65737;SDS011;52478;51.844;6.582;2023-04-08T01:13:03;5.22;;;2.65;;
65737;SDS011;52478;51.844;6.582;2023-04-08T01:15:34;5.65;;;2.60;;
65737;SDS011;52478;51.844;6.582;2023-04-08T01:18:05;5.20;;;2.20;;
65737;SDS011;52478;51.844;6.582;2023-04-08T01:20:32;5.53;;;2.33;;
65737;SDS011;52478;51.844;6.582;2023-04-08T01:25:31;5.65;;;2.45;;
65737;SDS011;52478;51.844;6.582;2023-04-08T01:28:00;5.75;;;2.83;;
65737;SDS011;52478;51.844;6.582;2023-04-08T01:30:31;7.20;;;2.70;;
65737;SDS011;52478;51.844;6.582;2023-04-08T01:32:59;5.40;;;2.30;;
65737;SDS011;52478;51.844;6.582;2023-04-08T01:35:27;5.80;;;2.80;;
65737;SDS011;52478;51.844;6.582;2023-04-08T01:37:56;6.10;;;2.55;;
65737;SDS011;52478;51.844;6.582;2023-04-08T01:40:24;5.55;;;2.30;;
65737;SDS011;52478;51.844;6.582;2023-04-08T01:42:52;6.15;;;2.08;;
65737;SDS011;52478;51.844;6.582;2023-04-08T01:45:22;5.25;;;2.13;;
65737;SDS011;52478;51.844;6.582;2023-04-08T01:47:49;5.30;;;2.75;;
65737;SDS011;52478;51.844;6.582;2023-04-08T01:50:17;5.57;;;2.53;;
65737;SDS011;52478;51.844;6.582;2023-04-08T01:52:45;5.25;;;2.25;;
65737;SDS011;52478;51.844;6.582;2023-04-08T01:55:14;5.40;;;2.47;;
65737;SDS011;52478;51.844;6.582;2023-04-08T01:57:42;5.60;;;2.33;;
65737;SDS011;52478;51.844;6.582;2023-04-08T02:00:13;5.38;;;2.38;;
65737;SDS011;52478;51.844;6.582;2023-04-08T02:02:42;6.32;;;2.30;;
65737;SDS011;52478;51.844;6.582;2023-04-08T02:05:11;5.43;;;2.50;;
65737;SDS011;52478;51.844;6.582;2023-04-08T02:07:37;5.40;;;2.50;;
65737;SDS011;52478;51.844;6.582;2023-04-08T02:10:04;5.75;;;2.88;;
65737;SDS011;52478;51.844;6.582;2023-04-08T02:12:31;5.53;;;2.80;;
65737;SDS011;52478;51.844;6.582;2023-04-08T02:14:58;5.00;;;2.42;;
65737;SDS011;52478;51.844;6.582;2023-04-08T02:17:27;4.88;;;2.10;;
65737;SDS011;52478;51.844;6.582;2023-04-08T02:20:04;6.30;;;2.47;;
65737;SDS011;52478;51.844;6.582;2023-04-08T02:22:35;5.35;;;2.40;;
65737;SDS011;52478;51.844;6.582;2023-04-08T02:25:05;5.22;;;2.05;;
65737;SDS011;52478;51.844;6.582;2023-04-08T02:30:05;5.50;;;2.20;;
65737;SDS011;52478;51.844;6.582;2023-04-08T02:32:33;4.90;;;2.03;;
65737;SDS011;52478;51.844;6.582;2023-04-08T02:35:01;5.18;;;2.22;;
65737;SDS011;52478;51.844;6.582;2023-04-08T02:37:31;5.53;;;2.65;;
65737;SDS011;52478;51.844;6.582;2023-04-08T02:39:57;5.00;;;2.13;;
65737;SDS011;52478;51.844;6.582;2023-04-08T02:42:24;5.20;;;2.47;;
65737;SDS011;52478;51.844;6.582;2023-04-08T02:44:50;4.97;;;2.05;;
65737;SDS011;52478;51.844;6.582;2023-04-08T02:47:17;5.47;;;2.78;;
65737;SDS011;52478;51.844;6.582;2023-04-08T02:49:43;5.50;;;2.30;;
65737;SDS011;52478;51.844;6.582;2023-04-08T02:52:11;5.43;;;2.10;;
65737;SDS011;52478;51.844;6.582;2023-04-08T02:54:38;5.72;;;2.30;;
65737;SDS011;52478;51.844;6.582;2023-04-08T02:57:04;5.00;;;2.05;;
65737;SDS011;52478;51.844;6.582;2023-04-08T02:59:31;5.00;;;2.00;;
65737;SDS011;52478;51.844;6.582;2023-04-08T03:01:57;5.32;;;2.58;;
65737;SDS011;52478;51.844;6.582;2023-04-08T03:04:24;5.85;;;2.15;;
65737;SDS011;52478;51.844;6.582;2023-04-08T03:06:50;5.47;;;2.25;;
65737;SDS011;52478;51.844;6.582;2023-04-08T03:09:18;4.78;;;1.70;;
65737;SDS011;52478;51.844;6.582;2023-04-08T03:11:44;5.32;;;2.30;;
65737;SDS011;52478;51.844;6.582;2023-04-08T03:14:16;5.57;;;2.70;;
65737;SDS011;52478;51.844;6.582;2023-04-08T03:16:43;5.13;;;2.33;;
65737;SDS011;52478;51.844;6.582;2023-04-08T03:19:09;4.90;;;2.20;;
65737;SDS011;52478;51.844;6.582;2023-04-08T03:21:35;5.45;;;2.08;;
65737;SDS011;52478;51.844;6.582;2023-04-08T03:24:02;4.75;;;1.90;;
65737;SDS011;52478;51.844;6.582;2023-04-08T03:26:30;4.55;;;1.73;;
65737;SDS011;52478;51.844;6.582;2023-04-08T03:28:57;5.20;;;2.17;;
65737;SDS011;52478;51.844;6.582;2023-04-08T03:31:24;4.97;;;2.28;;
65737;SDS011;52478;51.844;6.582;2023-04-08T03:33:50;4.80;;;2.33;;
65737;SDS011;52478;51.844;6.582;2023-04-08T03:36:17;6.25;;;2.10;;
65737;SDS011;52478;51.844;6.582;2023-04-08T03:38:43;5.07;;;2.33;;
65737;SDS011;52478;51.844;6.582;2023-04-08T03:41:10;5.30;;;2.53;;
65737;SDS011;52478;51.844;6.582;2023-04-08T03:43:38;4.85;;;1.90;;
65737;SDS011;52478;51.844;6.582;2023-04-08T03:46:04;4.75;;;2.00;;
65737;SDS011;52478;51.844;6.582;2023-04-08T03:48:31;5.70;;;2.60;;
65737;SDS011;52478;51.844;6.582;2023-04-08T03:50:57;5.50;;;2.10;;
65737;SDS011;52478;51.844;6.582;2023-04-08T03:53:23;5.22;;;2.35;;
65737;SDS011;52478;51.844;6.582;2023-04-08T03:55:52;5.45;;;2.38;;
65737;SDS011;52478;51.844;6.582;2023-04-08T03:58:18;5.22;;;2.30;;
65737;SDS011;52478;51.844;6.582;2023-04-08T04:00:46;5.28;;;2.22;;
65737;SDS011;52478;51.844;6.582;2023-04-08T04:03:12;5.78;;;1.98;;
65737;SDS011;52478;51.844;6.582;2023-04-08T04:05:39;5.28;;;2.20;;
65737;SDS011;52478;51.844;6.582;2023-04-08T04:08:06;5.00;;;1.80;;
65737;SDS011;52478;51.844;6.582;2023-04-08T04:10:33;5.15;;;1.83;;
65737;SDS011;52478;51.844;6.582;2023-04-08T04:12:59;4.95;;;1.83;;
65737;SDS011;52478;51.844;6.582;2023-04-08T04:15:26;5.43;;;2.20;;
65737;SDS011;52478;51.844;6.582;2023-04-08T04:17:54;5.30;;;1.92;;
65737;SDS011;52478;51.844;6.582;2023-04-08T04:20:20;4.88;;;2.00;;
65737;SDS011;52478;51.844;6.582;2023-04-08T04:22:47;5.10;;;2.45;;
65737;SDS011;52478;51.844;6.582;2023-04-08T04:25:13;5.13;;;2.28;;
65737;SDS011;52478;51.844;6.582;2023-04-08T04:27:40;5.25;;;2.00;;
65737;SDS011;52478;51.844;6.582;2023-04-08T04:30:07;4.68;;;2.10;;
65737;SDS011;52478;51.844;6.582;2023-04-08T04:32:34;5.00;;;2.10;;
65737;SDS011;52478;51.844;6.582;2023-04-08T04:35:02;5.03;;;2.00;;
65737;SDS011;52478;51.844;6.582;2023-04-08T04:37:29;5.95;;;2.15;;
65737;SDS011;52478;51.844;6.582;2023-04-08T04:39:55;4.80;;;1.73;;
65737;SDS011;52478;51.844;6.582;2023-04-08T04:42:22;4.38;;;1.80;;
65737;SDS011;52478;51.844;6.582;2023-04-08T04:44:48;4.90;;;1.80;;
65737;SDS011;52478;51.844;6.582;2023-04-08T04:47:15;5.05;;;2.08;;
65737;SDS011;52478;51.844;6.582;2023-04-08T04:49:41;4.80;;;2.00;;
65737;SDS011;52478;51.844;6.582;2023-04-08T04:52:11;4.70;;;1.98;;
65737;SDS011;52478;51.844;6.582;2023-04-08T04:54:37;5.07;;;2.20;;
65737;SDS011;52478;51.844;6.582;2023-04-08T04:57:04;5.68;;;2.10;;
65737;SDS011;52478;51.844;6.582;2023-04-08T04:59:30;5.00;;;1.95;;
65737;SDS011;52478;51.844;6.582;2023-04-08T05:01:56;4.25;;;1.75;;
65737;SDS011;52478;51.844;6.582;2023-04-08T05:04:23;4.70;;;2.30;;
65737;SDS011;52478;51.844;6.582;2023-04-08T05:06:50;4.70;;;1.85;;
65737;SDS011;52478;51.844;6.582;2023-04-08T05:09:18;4.90;;;2.00;;
65737;SDS011;52478;51.844;6.582;2023-04-08T05:11:44;5.47;;;1.88;;
65737;SDS011;52478;51.844;6.582;2023-04-08T05:14:11;4.22;;;1.73;;
65737;SDS011;52478;51.844;6.582;2023-04-08T05:16:37;4.95;;;2.17;;
65737;SDS011;52478;51.844;6.582;2023-04-08T05:19:04;4.53;;;1.80;;
65737;SDS011;52478;51.844;6.582;2023-04-08T05:21:31;4.93;;;2.00;;
65737;SDS011;52478;51.844;6.582;2023-04-08T05:23:57;5.30;;;2.08;;
65737;SDS011;52478;51.844;6.582;2023-04-08T05:26:25;4.35;;;1.67;;
65737;SDS011;52478;51.844;6.582;2023-04-08T05:28:52;5.00;;;2.30;;
65737;SDS011;52478;51.844;6.582;2023-04-08T05:31:18;5.07;;;2.15;;
65737;SDS011;52478;51.844;6.582;2023-04-08T05:33:45;5.40;;;2.35;;
65737;SDS011;52478;51.844;6.582;2023-04-08T05:36:12;4.80;;;1.90;;
65737;SDS011;52478;51.844;6.582;2023-04-08T05:41:07;4.40;;;1.77;;
65737;SDS011;52478;51.844;6.582;2023-04-08T05:43:35;4.25;;;1.70;;
65737;SDS011;52478;51.844;6.582;2023-04-08T05:46:04;4.43;;;2.05;;
65737;SDS011;52478;51.844;6.582;2023-04-08T05:48:31;4.93;;;2.10;;
65737;SDS011;52478;51.844;6.582;2023-04-08T05:50:58;4.90;;;2.20;;
65737;SDS011;52478;51.844;6.582;2023-04-08T05:53:24;4.80;;;2.00;;
65737;SDS011;52478;51.844;6.582;2023-04-08T05:55:51;5.30;;;2.08;;
65737;SDS011;52478;51.844;6.582;2023-04-08T05:58:18;4.55;;;1.98;;
65737;SDS011;52478;51.844;6.582;2023-04-08T06:00:45;5.22;;;2.13;;
65737;SDS011;52478;51.844;6.582;2023-04-08T06:03:12;4.60;;;2.15;;
65737;SDS011;52478;51.844;6.582;2023-04-08T06:05:38;4.88;;;1.80;;
65737;SDS011;52478;51.844;6.582;2023-04-08T06:08:05;4.45;;;1.75;;
65737;SDS011;52478;51.844;6.582;2023-04-08T06:10:31;5.60;;;2.25;;
65737;SDS011;52478;51.844;6.582;2023-04-08T06:12:58;5.07;;;1.80;;
65737;SDS011;52478;51.844;6.582;2023-04-08T06:15:24;6.90;;;1.75;;
65737;SDS011;52478;51.844;6.582;2023-04-08T06:20:19;4.88;;;1.88;;
65737;SDS011;52478;51.844;6.582;2023-04-08T06:22:46;5.45;;;1.70;;
65737;SDS011;52478;51.844;6.582;2023-04-08T06:25:12;5.00;;;1.63;;
65737;SDS011;52478;51.844;6.582;2023-04-08T06:27:39;4.47;;;1.55;;
65737;SDS011;52478;51.844;6.582;2023-04-08T06:30:06;4.88;;;2.10;;
65737;SDS011;52478;51.844;6.582;2023-04-08T06:32:33;5.55;;;2.00;;
65737;SDS011;52478;51.844;6.582;2023-04-08T06:35:01;5.35;;;2.05;;
65737;SDS011;52478;51.844;6.582;2023-04-08T06:37:27;5.28;;;2.38;;
65737;SDS011;52478;51.844;6.582;2023-04-08T06:39:54;4.60;;;1.83;;
65737;SDS011;52478;51.844;6.582;2023-04-08T06:42:20;5.07;;;1.80;;
65737;SDS011;52478;51.844;6.582;2023-04-08T06:44:47;7.47;;;2.40;;
65737;SDS011;52478;51.844;6.582;2023-04-08T06:47:13;5.10;;;2.10;;
65737;SDS011;52478;51.844;6.582;2023-04-08T06:49:41;4.85;;;1.88;;
65737;SDS011;52478;51.844;6.582;2023-04-08T06:52:08;6.03;;;2.50;;
65737;SDS011;52478;51.844;6.582;2023-04-08T06:54:35;6.53;;;2.10;;
65737;SDS011;52478;51.844;6.582;2023-04-08T06:57:02;5.10;;;2.00;;
65737;SDS011;52478;51.844;6.582;2023-04-08T06:59:29;5.10;;;2.22;;
65737;SDS011;52478;51.844;6.582;2023-04-08T07:01:55;5.97;;;2.22;;
65737;SDS011;52478;51.844;6.582;2023-04-08T07:04:21;5.07;;;2.30;;
65737;SDS011;52478;51.844;6.582;2023-04-08T07:06:48;5.07;;;2.17;;
65737;SDS011;52478;51.844;6.582;2023-04-08T07:09:16;7.40;;;2.20;;
65737;SDS011;52478;51.844;6.582;2023-04-08T07:11:42;5.55;;;2.38;;
65737;SDS011;52478;51.844;6.582;2023-04-08T07:14:10;4.60;;;1.90;;
65737;SDS011;52478;51.844;6.582;2023-04-08T07:16:37;6.10;;;2.20;;
65737;SDS011;52478;51.844;6.582;2023-04-08T07:19:04;5.88;;;2.40;;
65737;SDS011;52478;51.844;6.582;2023-04-08T07:21:30;4.90;;;2.17;;
65737;SDS011;52478;51.844;6.582;2023-04-08T07:23:57;4.25;;;1.98;;
65737;SDS011;52478;51.844;6.582;2023-04-08T07:26:25;5.25;;;2.00;;
65737;SDS011;52478;51.844;6.582;2023-04-08T07:28:52;5.65;;;2.10;;
65737;SDS011;52478;51.844;6.582;2023-04-08T07:31:18;5.25;;;1.88;;
65737;SDS011;52478;51.844;6.582;2023-04-08T07:33:45;5.47;;;2.33;;
65737;SDS011;52478;51.844;6.582;2023-04-08T07:36:12;5.35;;;2.20;;
65737;SDS011;52478;51.844;6.582;2023-04-08T07:38:39;5.45;;;2.58;;
65737;SDS011;52478;51.844;6.582;2023-04-08T07:41:06;5.20;;;2.00;;
65737;SDS011;52478;51.844;6.582;2023-04-08T07:43:34;5.22;;;2.10;;
65737;SDS011;52478;51.844;6.582;2023-04-08T07:46:01;6.72;;;2.33;;
65737;SDS011;52478;51.844;6.582;2023-04-08T07:48:28;5.47;;;2.03;;
65737;SDS011;52478;51.844;6.582;2023-04-08T07:50:55;5.22;;;2.30;;
65737;SDS011;52478;51.844;6.582;2023-04-08T07:53:22;5.85;;;2.50;;
65737;SDS011;52478;51.844;6.582;2023-04-08T07:55:50;5.75;;;2.50;;
65737;SDS011;52478;51.844;6.582;2023-04-08T07:58:17;6.15;;;2.67;;
65737;SDS011;52478;51.844;6.582;2023-04-08T08:00:45;5.65;;;2.22;;
65737;SDS011;52478;51.844;6.582;2023-04-08T08:03:11;5.07;;;1.90;;
65737;SDS011;52478;51.844;6.582;2023-04-08T08:05:39;6.35;;;2.65;;
65737;SDS011;52478;51.844;6.582;2023-04-08T08:08:05;7.30;;;2.70;;
65737;SDS011;52478;51.844;6.582;2023-04-08T08:10:32;7.18;;;2.58;;
65737;SDS011;52478;51.844;6.582;2023-04-08T08:12:59;7.75;;;2.80;;
65737;SDS011;52478;51.844;6.582;2023-04-08T08:15:25;6.20;;;2.17;;
65737;SDS011;52478;51.844;6.582;2023-04-08T08:17:53;8.02;;;2.38;;
65737;SDS011;52478;51.844;6.582;2023-04-08T08:20:19;8.27;;;3.20;;
65737;SDS011;52478;51.844;6.582;2023-04-08T08:22:46;6.55;;;2.72;;
65737;SDS011;52478;51.844;6.582;2023-04-08T08:25:12;7.10;;;2.70;;
65737;SDS011;52478;51.844;6.582;2023-04-08T08:27:39;6.20;;;2.72;;
65737;SDS011;52478;51.844;6.582;2023-04-08T08:30:06;7.25;;;3.00;;
65737;SDS011;52478;51.844;6.582;2023-04-08T08:32:34;5.68;;;2.67;;
65737;SDS011;52478;51.844;6.582;2023-04-08T08:35:02;7.38;;;2.70;;
65737;SDS011;52478;51.844;6.582;2023-04-08T08:37:29;7.82;;;3.00;;
65737;SDS011;52478;51.844;6.582;2023-04-08T08:39:55;7.78;;;2.67;;
65737;SDS011;52478;51.844;6.582;2023-04-08T08:42:22;6.50;;;2.33;;
65737;SDS011;52478;51.844;6.582;2023-04-08T08:44:50;8.07;;;2.80;;
65737;SDS011;52478;51.844;6.582;2023-04-08T08:47:17;7.47;;;3.10;;
65737;SDS011;52478;51.844;6.582;2023-04-08T08:49:43;7.15;;;3.10;;
65737;SDS011;52478;51.844;6.582;2023-04-08T08:52:11;5.68;;;2.50;;
65737;SDS011;52478;51.844;6.582;2023-04-08T08:54:41;7.50;;;2.67;;
65737;SDS011;52478;51.844;6.582;2023-04-08T08:57:15;6.85;;;2.53;;
65737;SDS011;52478;51.844;6.582;2023-04-08T08:59:43;9.50;;;3.15;;
65737;SDS011;52478;51.844;6.582;2023-04-08T09:02:21;6.93;;;2.53;;
65737;SDS011;52478;51.844;6.582;2023-04-08T09:04:54;6.93;;;2.88;;
65737;SDS011;52478;51.844;6.582;2023-04-08T09:07:25;6.40;;;3.15;;
65737;SDS011;52478;51.844;6.582;2023-04-08T09:09:53;6.60;;;2.45;;
65737;SDS011;52478;51.844;6.582;2023-04-08T09:12:20;6.70;;;3.10;;
65737;SDS011;52478;51.844;6.582;2023-04-08T09:14:49;6.47;;;2.70;;
65737;SDS011;52478;51.844;6.582;2023-04-08T09:17:30;6.10;;;3.10;;
65737;SDS011;52478;51.844;6.582;2023-04-08T09:20:04;55.78;;;12.40;;
65737;SDS011;52478;51.844;6.582;2023-04-08T09:25:26;52.63;;;10.85;;
65737;SDS011;52478;51.844;6.582;2023-04-08T09:27:53;48.97;;;11.38;;
65737;SDS011;52478;51.844;6.582;2023-04-08T09:30:22;51.25;;;12.20;;
65737;SDS011;52478;51.844;6.582;2023-04-08T09:32:52;45.75;;;10.30;;
65737;SDS011;52478;51.844;6.582;2023-04-08T09:35:19;46.28;;;11.90;;
65737;SDS011;52478;51.844;6.582;2023-04-08T09:37:47;45.20;;;10.60;;
65737;SDS011;52478;51.844;6.582;2023-04-08T09:40:16;42.13;;;11.10;;
65737;SDS011;52478;51.844;6.582;2023-04-08T09:42:46;39.72;;;10.15;;
65737;SDS011;52478;51.844;6.582;2023-04-08T09:45:15;37.65;;;10.48;;
65737;SDS011;52478;51.844;6.582;2023-04-08T09:50:14;28.83;;;8.85;;
65737;SDS011;52478;51.844;6.582;2023-04-08T09:52:44;34.08;;;8.43;;
65737;SDS011;52478;51.844;6.582;2023-04-08T09:55:16;35.75;;;9.43;;
65737;SDS011;52478;51.844;6.582;2023-04-08T09:57:49;27.65;;;7.78;;
65737;SDS011;52478;51.844;6.582;2023-04-08T10:00:17;25.27;;;8.05;;
65737;SDS011;52478;51.844;6.582;2023-04-08T10:02:46;23.67;;;8.23;;
65737;SDS011;52478;51.844;6.582;2023-04-08T10:05:18;31.10;;;8.45;;
65737;SDS011;52478;51.844;6.582;2023-04-08T10:07:45;24.40;;;7.63;;
65737;SDS011;52478;51.844;6.582;2023-04-08T10:10:13;28.60;;;7.85;;
65737;SDS011;52478;51.844;6.582;2023-04-08T10:12:42;29.17;;;7.70;;
65737;SDS011;52478;51.844;6.582;2023-04-08T10:15:21;20.60;;;6.85;;
65737;SDS011;52478;51.844;6.582;2023-04-08T10:17:49;21.40;;;7.07;;
65737;SDS011;52478;51.844;6.582;2023-04-08T10:23:10;20.48;;;6.38;;
65737;SDS011;52478;51.844;6.582;2023-04-08T10:25:39;20.90;;;6.82;;
65737;SDS011;52478;51.844;6.582;2023-04-08T10:28:24;20.90;;;5.85;;
65737;SDS011;52478;51.844;6.582;2023-04-08T10:30:51;19.77;;;6.13;;
65737;SDS011;52478;51.844;6.582;2023-04-08T10:33:20;19.80;;;6.30;;
65737;SDS011;52478;51.844;6.582;2023-04-08T10:35:48;18.02;;;5.90;;
65737;SDS011;52478;51.844;6.582;2023-04-08T10:38:19;19.98;;;6.65;;
65737;SDS011;52478;51.844;6.582;2023-04-08T10:40:48;15.30;;;6.07;;
65737;SDS011;52478;51.844;6.582;2023-04-08T10:43:15;16.17;;;6.03;;
65737;SDS011;52478;51.844;6.582;2023-04-08T10:45:42;16.23;;;5.78;;
65737;SDS011;52478;51.844;6.582;2023-04-08T10:48:10;17.73;;;5.50;;
65737;SDS011;52478;51.844;6.582;2023-04-08T10:50:37;18.88;;;5.28;;
65737;SDS011;52478;51.844;6.582;2023-04-08T10:53:05;15.25;;;5.55;;
65737;SDS011;52478;51.844;6.582;2023-04-08T10:55:32;14.02;;;4.70;;
65737;SDS011;52478;51.844;6.582;2023-04-08T10:58:05;14.85;;;5.10;;
65737;SDS011;52478;51.844;6.582;2023-04-08T11:00:33;12.60;;;4.55;;
65737;SDS011;52478;51.844;6.582;2023-04-08T11:03:00;15.50;;;4.80;;
65737;SDS011;52478;51.844;6.582;2023-04-08T11:05:28;15.57;;;5.07;;
65737;SDS011;52478;51.844;6.582;2023-04-08T11:07:55;13.77;;;4.85;;
65737;SDS011;52478;51.844;6.582;2023-04-08T11:10:21;12.45;;;4.38;;
65737;SDS011;52478;51.844;6.582;2023-04-08T11:12:48;11.95;;;4.70;;
65737;SDS011;52478;51.844;6.582;2023-04-08T11:17:43;12.38;;;4.50;;
65737;SDS011;52478;51.844;6.582;2023-04-08T11:20:09;11.55;;;4.00;;
65737;SDS011;52478;51.844;6.582;2023-04-08T11:22:36;11.35;;;4.00;;
65737;SDS011;52478;51.844;6.582;2023-04-08T11:25:04;8.40;;;3.60;;
65737;SDS011;52478;51.844;6.582;2023-04-08T11:27:34;11.35;;;4.10;;
65737;SDS011;52478;51.844;6.582;2023-04-08T11:32:29;10.18;;;3.85;;
65737;SDS011;52478;51.844;6.582;2023-04-08T11:34:58;8.63;;;3.50;;
65737;SDS011;52478;51.844;6.582;2023-04-08T11:37:25;10.48;;;3.65;;
65737;SDS011;52478;51.844;6.582;2023-04-08T11:39:53;7.50;;;3.70;;
65737;SDS011;52478;51.844;6.582;2023-04-08T11:42:26;9.45;;;3.45;;
65737;SDS011;52478;51.844;6.582;2023-04-08T11:44:52;8.00;;;3.88;;
65737;SDS011;52478;51.844;6.582;2023-04-08T11:47:19;8.27;;;3.28;;
65737;SDS011;52478;51.844;6.582;2023-04-08T11:49:47;12.57;;;4.20;;
65737;SDS011;52478;51.844;6.582;2023-04-08T11:52:14;9.60;;;4.00;;
65737;SDS011;52478;51.844;6.582;2023-04-08T11:54:41;8.90;;;3.72;;
65737;SDS011;52478;51.844;6.582;2023-04-08T11:57:08;8.93;;;3.60;;
65737;SDS011;52478;51.844;6.582;2023-04-08T11:59:35;8.02;;;2.85;;
65737;SDS011;52478;51.844;6.582;2023-04-08T12:02:01;7.90;;;3.70;;
65737;SDS011;52478;51.844;6.582;2023-04-08T12:04:28;7.43;;;3.05;;
65737;SDS011;52478;51.844;6.582;2023-04-08T12:06:56;8.02;;;3.30;;
65737;SDS011;52478;51.844;6.582;2023-04-08T12:09:22;7.82;;;2.90;;
65737;SDS011;52478;51.844;6.582;2023-04-08T12:11:49;7.07;;;3.28;;
65737;SDS011;52478;51.844;6.582;2023-04-08T12:14:16;7.88;;;2.85;;
65737;SDS011;52478;51.844;6.582;2023-04-08T12:16:42;7.93;;;3.17;;
65737;SDS011;52478;51.844;6.582;2023-04-08T12:19:08;6.93;;;3.47;;
65737;SDS011;52478;51.844;6.582;2023-04-08T12:21:35;6.45;;;2.70;;
65737;SDS011;52478;51.844;6.582;2023-04-08T12:24:03;6.70;;;2.85;;
65737;SDS011;52478;51.844;6.582;2023-04-08T12:26:30;13.52;;;3.45;;
65737;SDS011;52478;51.844;6.582;2023-04-08T12:28:56;7.45;;;2.92;;
65737;SDS011;52478;51.844;6.582;2023-04-08T12:31:23;7.40;;;3.08;;
65737;SDS011;52478;51.844;6.582;2023-04-08T12:33:51;7.60;;;3.50;;
65737;SDS011;52478;51.844;6.582;2023-04-08T12:36:18;8.00;;;3.40;;
65737;SDS011;52478;51.844;6.582;2023-04-08T12:38:44;7.85;;;2.90;;
65737;SDS011;52478;51.844;6.582;2023-04-08T12:41:12;7.35;;;3.05;;
65737;SDS011;52478;51.844;6.582;2023-04-08T12:43:39;7.20;;;2.75;;
65737;SDS011;52478;51.844;6.582;2023-04-08T12:46:05;6.60;;;2.65;;
65737;SDS011;52478;51.844;6.582;2023-04-08T12:48:32;7.07;;;3.10;;
65737;SDS011;52478;51.844;6.582;2023-04-08T12:50:58;7.18;;;3.42;;
65737;SDS011;52478;51.844;6.582;2023-04-08T12:53:25;6.85;;;3.00;;
65737;SDS011;52478;51.844;6.582;2023-04-08T12:55:51;7.53;;;3.17;;
65737;SDS011;52478;51.844;6.582;2023-04-08T12:58:22;8.55;;;3.30;;
65737;SDS011;52478;51.844;6.582;2023-04-08T13:00:49;8.57;;;3.53;;
65737;SDS011;52478;51.844;6.582;2023-04-08T13:03:15;8.32;;;3.20;;
65737;SDS011;52478;51.844;6.582;2023-04-08T13:05:42;8.00;;;3.40;;
65737;SDS011;52478;51.844;6.582;2023-04-08T13:08:09;7.75;;;3.05;;
65737;SDS011;52478;51.844;6.582;2023-04-08T13:10:35;8.45;;;3.90;;
65737;SDS011;52478;51.844;6.582;2023-04-08T13:13:02;8.77;;;3.40;;
65737;SDS011;52478;51.844;6.582;2023-04-08T13:15:30;8.00;;;3.88;;
65737;SDS011;52478;51.844;6.582;2023-04-08T13:17:56;9.02;;;4.00;;
65737;SDS011;52478;51.844;6.582;2023-04-08T13:20:23;11.65;;;3.90;;
65737;SDS011;52478;51.844;6.582;2023-04-08T13:22:50;10.30;;;3.80;;
65737;SDS011;52478;51.844;6.582;2023-04-08T13:25:17;11.85;;;4.00;;
65737;SDS011;52478;51.844;6.582;2023-04-08T13:27:43;11.55;;;3.97;;
65737;SDS011;52478;51.844;6.582;2023-04-08T13:30:10;9.52;;;3.83;;
65737;SDS011;52478;51.844;6.582;2023-04-08T13:32:39;10.65;;;4.25;;
65737;SDS011;52478;51.844;6.582;2023-04-08T13:35:05;10.82;;;3.70;;
65737;SDS011;52478;51.844;6.582;2023-04-08T13:37:32;9.65;;;3.45;;
65737;SDS011;52478;51.844;6.582;2023-04-08T13:39:59;9.15;;;3.65;;
65737;SDS011;52478;51.844;6.582;2023-04-08T13:42:25;8.63;;;3.65;;
65737;SDS011;52478;51.844;6.582;2023-04-08T13:44:52;9.45;;;4.07;;
65737;SDS011;52478;51.844;6.582;2023-04-08T13:47:18;9.48;;;3.22;;
65737;SDS011;52478;51.844;6.582;2023-04-08T13:49:46;11.43;;;3.50;;
65737;SDS011;52478;51.844;6.582;2023-04-08T13:52:13;8.38;;;3.72;;
65737;SDS011;52478;51.844;6.582;2023-04-08T13:54:39;10.57;;;3.33;;
65737;SDS011;52478;51.844;6.582;2023-04-08T13:57:06;9.60;;;3.40;;
65737;SDS011;52478;51.844;6.582;2023-04-08T13:59:32;9.30;;;3.88;;
65737;SDS011;52478;51.844;6.582;2023-04-08T14:01:59;8.85;;;3.25;;
65737;SDS011;52478;51.844;6.582;2023-04-08T14:04:26;10.27;;;3.78;;
65737;SDS011;52478;51.844;6.582;2023-04-08T14:06:53;8.50;;;3.35;;
65737;SDS011;52478;51.844;6.582;2023-04-08T14:09:22;9.23;;;3.92;;
65737;SDS011;52478;51.844;6.582;2023-04-08T14:11:49;8.88;;;3.88;;
65737;SDS011;52478;51.844;6.582;2023-04-08T14:14:15;12.40;;;3.33;;
65737;SDS011;52478;51.844;6.582;2023-04-08T14:16:42;10.02;;;3.40;;
65737;SDS011;52478;51.844;6.582;2023-04-08T14:19:08;8.70;;;4.05;;
65737;SDS011;52478;51.844;6.582;2023-04-08T14:21:35;9.95;;;3.92;;
65737;SDS011;52478;51.844;6.582;2023-04-08T14:24:04;7.55;;;3.50;;
65737;SDS011;52478;51.844;6.582;2023-04-08T14:26:31;7.25;;;3.97;;
65737;SDS011;52478;51.844;6.582;2023-04-08T14:29:00;8.50;;;3.92;;
65737;SDS011;52478;51.844;6.582;2023-04-08T14:31:27;9.07;;;3.40;;
65737;SDS011;52478;51.844;6.582;2023-04-08T14:33:53;9.20;;;3.50;;
65737;SDS011;52478;51.844;6.582;2023-04-08T14:36:20;7.65;;;3.20;;
65737;SDS011;52478;51.844;6.582;2023-04-08T14:38:48;8.32;;;3.35;;
65737;SDS011;52478;51.844;6.582;2023-04-08T14:41:16;10.82;;;3.30;;
65737;SDS011;52478;51.844;6.582;2023-04-08T14:43:43;9.40;;;3.65;;
65737;SDS011;52478;51.844;6.582;2023-04-08T14:46:10;7.55;;;4.00;;
65737;SDS011;52478;51.844;6.582;2023-04-08T14:48:36;9.63;;;3.53;;
65737;SDS011;52478;51.844;6.582;2023-04-08T14:51:03;8.60;;;3.80;;
65737;SDS011;52478;51.844;6.582;2023-04-08T14:53:30;9.13;;;3.65;;
65737;SDS011;52478;51.844;6.582;2023-04-08T14:55:57;10.15;;;4.15;;
65737;SDS011;52478;51.844;6.582;2023-04-08T14:58:25;8.27;;;3.75;;
65737;SDS011;52478;51.844;6.582;2023-04-08T15:00:51;7.38;;;3.50;;
65737;SDS011;52478;51.844;6.582;2023-04-08T15:03:18;10.07;;;3.50;;
65737;SDS011;52478;51.844;6.582;2023-04-08T15:05:45;6.60;;;3.20;;
65737;SDS011;52478;51.844;6.582;2023-04-08T15:08:11;9.82;;;3.67;;
65737;SDS011;52478;51.844;6.582;2023-04-08T15:10:37;8.50;;;3.88;;